LPE2024 SPJC-SPZO
Flight info
| Callsign | LPE2024 |
|---|---|
| Flight time | 0h 55m |
| Altitude | 35000 |
| Route | PAKOL UM668 POVLO DCT DARKI |
| Aircraft | A20N/M-SDE2E3FGHIRWXY/LB1 |
Departure
| Time | 2026-05-07 14:09 |
|---|---|
| Airport | Jorge Chávez International Airport (SPJC) |
Arrival
| Time | 2026-05-07 15:04 |
|---|---|
| Airport | Alejandro Velasco Astete International Airport (SPZO) |
| Time | Latitude | Longitude | Altitude | Speed | Heading |
|---|---|---|---|---|---|
| 2026-05-07 13:25 | -12.02934 | -77.11388 | 81 ft | 0 kts | 243° |
| 2026-05-07 13:57 | -12.02928 | -77.11376 | 85 ft | 4 kts | 245° |
| 2026-05-07 13:57 | -12.02919 | -77.11350 | 86 ft | 4 kts | 263° |
| 2026-05-07 13:58 | -12.02922 | -77.11327 | 87 ft | 3 kts | 326° |
| 2026-05-07 13:58 | -12.02925 | -77.11325 | 87 ft | 0 kts | 331° |
| 2026-05-07 14:03 | -12.02922 | -77.11327 | 87 ft | 2 kts | 331° |
| 2026-05-07 14:03 | -12.02890 | -77.11340 | 84 ft | 5 kts | 4° |
| 2026-05-07 14:04 | -12.02877 | -77.11322 | 87 ft | 5 kts | 53° |
| 2026-05-07 14:04 | -12.02836 | -77.11292 | 88 ft | 8 kts | 358° |
| 2026-05-07 14:04 | -12.02752 | -77.11335 | 85 ft | 20 kts | 335° |
| 2026-05-07 14:04 | -12.02607 | -77.11400 | 83 ft | 25 kts | 337° |
| 2026-05-07 14:05 | -12.02442 | -77.11488 | 79 ft | 29 kts | 334° |
| 2026-05-07 14:05 | -12.02254 | -77.11585 | 70 ft | 31 kts | 328° |
| 2026-05-07 14:05 | -12.02048 | -77.11677 | 69 ft | 34 kts | 332° |
| 2026-05-07 14:05 | -12.01830 | -77.11791 | 62 ft | 36 kts | 334° |
| 2026-05-07 14:06 | -12.01682 | -77.11858 | 65 ft | 17 kts | 331° |
| 2026-05-07 14:06 | -12.01568 | -77.11921 | 61 ft | 21 kts | 332° |
| 2026-05-07 14:06 | -12.01427 | -77.11994 | 54 ft | 25 kts | 336° |
| 2026-05-07 14:06 | -12.01268 | -77.12082 | 53 ft | 27 kts | 303° |
| 2026-05-07 14:07 | -12.01138 | -77.12203 | 50 ft | 27 kts | 333° |
| 2026-05-07 14:07 | -12.00952 | -77.12286 | 51 ft | 31 kts | 337° |
| 2026-05-07 14:07 | -12.00865 | -77.12302 | 51 ft | 9 kts | 26° |
| 2026-05-07 14:07 | -12.00821 | -77.12251 | 50 ft | 11 kts | 57° |
| 2026-05-07 14:08 | -12.00779 | -77.12167 | 50 ft | 14 kts | 74° |
| 2026-05-07 14:08 | -12.00819 | -77.12104 | 50 ft | 11 kts | 151° |
| 2026-05-07 14:08 | -12.00952 | -77.12040 | 51 ft | 48 kts | 155° |
| 2026-05-07 14:08 | -12.01457 | -77.11792 | 64 ft | 111 kts | 154° |
| 2026-05-07 14:09 | -12.02295 | -77.11385 | 225 ft | 142 kts | 155° |
| 2026-05-07 14:09 | -12.03145 | -77.10967 | 879 ft | 134 kts | 154° |
| 2026-05-07 14:09 | -12.03973 | -77.10494 | 1330 ft | 145 kts | 150° |
| 2026-05-07 14:09 | -12.04890 | -77.10006 | 1841 ft | 154 kts | 156° |
| 2026-05-07 14:10 | -12.05941 | -77.09527 | 2237 ft | 173 kts | 156° |
| 2026-05-07 14:10 | -12.07085 | -77.08999 | 2689 ft | 193 kts | 155° |
| 2026-05-07 14:10 | -12.08371 | -77.08382 | 3157 ft | 215 kts | 154° |
| 2026-05-07 14:10 | -12.09798 | -77.07683 | 3681 ft | 239 kts | 154° |
| 2026-05-07 14:11 | -12.11369 | -77.06906 | 4352 ft | 261 kts | 154° |
| 2026-05-07 14:11 | -12.13031 | -77.06082 | 5140 ft | 273 kts | 154° |
| 2026-05-07 14:11 | -12.14756 | -77.05228 | 5254 ft | 273 kts | 154° |
| 2026-05-07 14:11 | -12.16460 | -77.04384 | 5369 ft | 272 kts | 154° |
| 2026-05-07 14:12 | -12.18171 | -77.03539 | 5491 ft | 273 kts | 154° |
| 2026-05-07 14:12 | -12.19884 | -77.02692 | 5610 ft | 274 kts | 154° |
| 2026-05-07 14:12 | -12.21597 | -77.01846 | 5728 ft | 274 kts | 154° |
| 2026-05-07 14:12 | -12.23278 | -77.00933 | 5852 ft | 275 kts | 144° |
| 2026-05-07 14:13 | -12.24635 | -76.99560 | 5968 ft | 277 kts | 125° |
| 2026-05-07 14:13 | -12.25546 | -76.97823 | 6108 ft | 278 kts | 116° |
| 2026-05-07 14:13 | -12.26390 | -76.96045 | 6231 ft | 279 kts | 116° |
| 2026-05-07 14:13 | -12.27243 | -76.94263 | 6346 ft | 279 kts | 116° |
| 2026-05-07 14:14 | -12.27918 | -76.92424 | 6483 ft | 281 kts | 109° |
| 2026-05-07 14:14 | -12.28534 | -76.90527 | 6596 ft | 281 kts | 109° |
| 2026-05-07 14:14 | -12.29155 | -76.88629 | 6728 ft | 282 kts | 109° |
| 2026-05-07 14:14 | -12.29778 | -76.86727 | 6839 ft | 282 kts | 109° |
| 2026-05-07 14:15 | -12.30401 | -76.84824 | 6959 ft | 283 kts | 109° |
| 2026-05-07 14:15 | -12.31031 | -76.82902 | 7115 ft | 285 kts | 109° |
| 2026-05-07 14:15 | -12.31664 | -76.80966 | 7708 ft | 288 kts | 109° |
| 2026-05-07 14:15 | -12.32297 | -76.79031 | 8761 ft | 287 kts | 108° |
| 2026-05-07 14:16 | -12.32935 | -76.77081 | 9693 ft | 291 kts | 108° |
| 2026-05-07 14:16 | -12.33583 | -76.75098 | 10489 ft | 299 kts | 108° |
| 2026-05-07 14:16 | -12.34269 | -76.72999 | 10848 ft | 323 kts | 108° |
| 2026-05-07 14:16 | -12.34995 | -76.70773 | 11182 ft | 343 kts | 108° |
| 2026-05-07 14:17 | -12.35757 | -76.68436 | 11908 ft | 348 kts | 108° |
| 2026-05-07 14:17 | -12.36535 | -76.66050 | 12731 ft | 351 kts | 109° |
| 2026-05-07 14:17 | -12.37303 | -76.63693 | 13523 ft | 355 kts | 109° |
| 2026-05-07 14:17 | -12.38088 | -76.61280 | 14231 ft | 360 kts | 109° |
| 2026-05-07 14:18 | -12.38894 | -76.58811 | 14957 ft | 363 kts | 109° |
| 2026-05-07 14:18 | -12.39691 | -76.56354 | 15656 ft | 366 kts | 109° |
| 2026-05-07 14:18 | -12.40488 | -76.53903 | 16317 ft | 369 kts | 109° |
| 2026-05-07 14:18 | -12.41300 | -76.51403 | 17001 ft | 373 kts | 109° |
| 2026-05-07 14:19 | -12.42123 | -76.48872 | 17646 ft | 376 kts | 109° |
| 2026-05-07 14:19 | -12.42955 | -76.46321 | 18308 ft | 379 kts | 109° |
| 2026-05-07 14:19 | -12.43794 | -76.43742 | 18881 ft | 383 kts | 109° |
| 2026-05-07 14:19 | -12.44638 | -76.41147 | 19438 ft | 386 kts | 109° |
| 2026-05-07 14:20 | -12.45490 | -76.38522 | 19972 ft | 391 kts | 109° |
| 2026-05-07 14:20 | -12.46355 | -76.35871 | 20506 ft | 394 kts | 109° |
| 2026-05-07 14:20 | -12.47226 | -76.33191 | 21052 ft | 398 kts | 109° |
| 2026-05-07 14:20 | -12.48085 | -76.30546 | 21601 ft | 402 kts | 109° |
| 2026-05-07 14:21 | -12.48986 | -76.27760 | 22165 ft | 406 kts | 109° |
| 2026-05-07 14:21 | -12.49866 | -76.25039 | 22705 ft | 409 kts | 109° |
| 2026-05-07 14:21 | -12.50765 | -76.22265 | 23239 ft | 413 kts | 109° |
| 2026-05-07 14:21 | -12.51675 | -76.19456 | 23754 ft | 417 kts | 109° |
| 2026-05-07 14:22 | -12.52596 | -76.16623 | 24214 ft | 421 kts | 109° |
| 2026-05-07 14:22 | -12.53518 | -76.13766 | 24616 ft | 426 kts | 109° |
| 2026-05-07 14:22 | -12.54453 | -76.10875 | 25026 ft | 430 kts | 109° |
| 2026-05-07 14:22 | -12.55400 | -76.07957 | 25417 ft | 434 kts | 109° |
| 2026-05-07 14:23 | -12.56353 | -76.05006 | 25791 ft | 439 kts | 109° |
| 2026-05-07 14:23 | -12.57315 | -76.02028 | 26187 ft | 443 kts | 108° |
| 2026-05-07 14:23 | -12.58288 | -75.99021 | 26578 ft | 447 kts | 108° |
| 2026-05-07 14:23 | -12.59270 | -75.95983 | 26979 ft | 450 kts | 108° |
| 2026-05-07 14:24 | -12.60251 | -75.92933 | 27358 ft | 453 kts | 108° |
| 2026-05-07 14:24 | -12.61242 | -75.89845 | 27732 ft | 457 kts | 108° |
| 2026-05-07 14:24 | -12.62229 | -75.86786 | 28078 ft | 460 kts | 108° |
| 2026-05-07 14:24 | -12.63243 | -75.83653 | 28425 ft | 464 kts | 108° |
| 2026-05-07 14:25 | -12.64264 | -75.80497 | 28792 ft | 467 kts | 108° |
| 2026-05-07 14:25 | -12.65284 | -75.77331 | 29128 ft | 471 kts | 108° |
| 2026-05-07 14:25 | -12.66314 | -75.74128 | 29443 ft | 475 kts | 107° |
| 2026-05-07 14:25 | -12.67348 | -75.70912 | 29798 ft | 477 kts | 107° |
| 2026-05-07 14:26 | -12.68390 | -75.67672 | 30131 ft | 481 kts | 107° |
| 2026-05-07 14:26 | -12.69439 | -75.64406 | 30440 ft | 484 kts | 107° |
| 2026-05-07 14:26 | -12.70493 | -75.61122 | 30723 ft | 487 kts | 107° |
| 2026-05-07 14:26 | -12.71555 | -75.57815 | 31044 ft | 489 kts | 107° |
| 2026-05-07 14:27 | -12.72621 | -75.54497 | 31336 ft | 493 kts | 108° |
| 2026-05-07 14:27 | -12.73693 | -75.51155 | 31684 ft | 494 kts | 108° |
| 2026-05-07 14:27 | -12.74754 | -75.47848 | 32073 ft | 494 kts | 108° |
| 2026-05-07 14:27 | -12.75827 | -75.44498 | 32469 ft | 494 kts | 108° |
| 2026-05-07 14:28 | -12.76900 | -75.41151 | 32867 ft | 494 kts | 108° |
| 2026-05-07 14:28 | -12.77973 | -75.37799 | 33248 ft | 494 kts | 108° |
| 2026-05-07 14:28 | -12.79042 | -75.34455 | 33641 ft | 494 kts | 108° |
| 2026-05-07 14:28 | -12.80112 | -75.31107 | 34008 ft | 495 kts | 109° |
| 2026-05-07 14:29 | -12.81185 | -75.27752 | 34368 ft | 495 kts | 109° |
| 2026-05-07 14:29 | -12.82256 | -75.24400 | 34714 ft | 494 kts | 109° |
| 2026-05-07 14:29 | -12.83325 | -75.21060 | 35075 ft | 492 kts | 109° |
| 2026-05-07 14:29 | -12.84391 | -75.17723 | 35238 ft | 491 kts | 109° |
| 2026-05-07 14:30 | -12.85447 | -75.14406 | 35324 ft | 489 kts | 108° |
| 2026-05-07 14:30 | -12.87562 | -75.07780 | 35413 ft | 489 kts | 108° |
| 2026-05-07 14:31 | -12.89663 | -75.01176 | 35415 ft | 489 kts | 108° |
| 2026-05-07 14:31 | -12.91770 | -74.94549 | 35415 ft | 489 kts | 109° |
| 2026-05-07 14:32 | -12.93524 | -74.89035 | 35418 ft | 489 kts | 109° |
| 2026-05-07 14:32 | -12.95630 | -74.82409 | 35418 ft | 489 kts | 109° |
| 2026-05-07 14:33 | -12.97733 | -74.75787 | 35424 ft | 488 kts | 109° |
| 2026-05-07 14:33 | -12.99841 | -74.69155 | 35421 ft | 489 kts | 109° |
| 2026-05-07 14:34 | -13.01943 | -74.62520 | 35418 ft | 488 kts | 109° |
| 2026-05-07 14:34 | -13.04037 | -74.55892 | 35422 ft | 489 kts | 109° |
| 2026-05-07 14:35 | -13.06132 | -74.49263 | 35438 ft | 489 kts | 109° |
| 2026-05-07 14:35 | -13.08231 | -74.42619 | 35450 ft | 488 kts | 109° |
| 2026-05-07 14:36 | -13.10307 | -74.36043 | 35463 ft | 488 kts | 109° |
| 2026-05-07 14:36 | -13.12396 | -74.29417 | 35480 ft | 488 kts | 109° |
| 2026-05-07 14:37 | -13.14485 | -74.22787 | 35478 ft | 488 kts | 109° |
| 2026-05-07 14:37 | -13.16977 | -74.12642 | 35483 ft | 488 kts | 103° |
| 2026-05-07 14:38 | -13.18526 | -74.05852 | 35469 ft | 489 kts | 104° |
| 2026-05-07 14:38 | -13.20072 | -73.99055 | 35447 ft | 488 kts | 103° |
| 2026-05-07 14:39 | -13.21597 | -73.92321 | 35419 ft | 486 kts | 104° |
| 2026-05-07 14:39 | -13.23131 | -73.85545 | 35396 ft | 490 kts | 103° |
| 2026-05-07 14:40 | -13.24663 | -73.78763 | 35382 ft | 487 kts | 103° |
| 2026-05-07 14:40 | -13.26193 | -73.71984 | 35372 ft | 488 kts | 103° |
| 2026-05-07 14:41 | -13.27722 | -73.65194 | 35364 ft | 487 kts | 103° |
| 2026-05-07 14:41 | -13.29244 | -73.58418 | 35353 ft | 488 kts | 103° |
| 2026-05-07 14:42 | -13.30759 | -73.51681 | 35351 ft | 487 kts | 103° |
| 2026-05-07 14:42 | -13.32286 | -73.44908 | 35350 ft | 488 kts | 104° |
| 2026-05-07 14:43 | -13.33803 | -73.38134 | 35341 ft | 487 kts | 103° |
| 2026-05-07 14:43 | -13.35330 | -73.31311 | 35335 ft | 487 kts | 103° |
| 2026-05-07 14:44 | -13.36846 | -73.24534 | 35341 ft | 487 kts | 103° |
| 2026-05-07 14:44 | -13.38351 | -73.17792 | 35068 ft | 487 kts | 104° |
| 2026-05-07 14:45 | -13.39107 | -73.14401 | 34834 ft | 486 kts | 104° |
| 2026-05-07 14:45 | -13.39871 | -73.10971 | 34615 ft | 487 kts | 104° |
| 2026-05-07 14:45 | -13.40617 | -73.07616 | 34383 ft | 488 kts | 104° |
| 2026-05-07 14:45 | -13.41375 | -73.04211 | 34138 ft | 489 kts | 104° |
| 2026-05-07 14:46 | -13.42130 | -73.00814 | 33889 ft | 489 kts | 103° |
| 2026-05-07 14:46 | -13.42888 | -72.97405 | 33636 ft | 489 kts | 103° |
| 2026-05-07 14:46 | -13.43647 | -72.93995 | 33388 ft | 489 kts | 103° |
| 2026-05-07 14:46 | -13.44405 | -72.90595 | 33142 ft | 489 kts | 103° |
| 2026-05-07 14:47 | -13.45167 | -72.87175 | 32884 ft | 490 kts | 103° |
| 2026-05-07 14:47 | -13.45987 | -72.83780 | 32644 ft | 491 kts | 105° |
| 2026-05-07 14:47 | -13.46887 | -72.80426 | 32398 ft | 491 kts | 106° |
| 2026-05-07 14:47 | -13.47823 | -72.77012 | 32160 ft | 492 kts | 106° |
| 2026-05-07 14:48 | -13.48749 | -72.73621 | 31916 ft | 492 kts | 105° |
| 2026-05-07 14:48 | -13.49649 | -72.70280 | 31689 ft | 492 kts | 105° |
| 2026-05-07 14:48 | -13.50564 | -72.66846 | 31454 ft | 493 kts | 105° |
| 2026-05-07 14:48 | -13.51465 | -72.63443 | 31216 ft | 493 kts | 105° |
| 2026-05-07 14:49 | -13.52352 | -72.60097 | 30974 ft | 492 kts | 105° |
| 2026-05-07 14:49 | -13.53246 | -72.56702 | 30760 ft | 490 kts | 104° |
| 2026-05-07 14:49 | -13.54135 | -72.53326 | 30524 ft | 488 kts | 104° |
| 2026-05-07 14:49 | -13.55021 | -72.49963 | 30266 ft | 487 kts | 104° |
| 2026-05-07 14:50 | -13.55904 | -72.46606 | 29644 ft | 486 kts | 104° |
| 2026-05-07 14:50 | -13.56783 | -72.43255 | 29012 ft | 483 kts | 104° |
| 2026-05-07 14:50 | -13.57655 | -72.39941 | 28371 ft | 477 kts | 105° |
| 2026-05-07 14:50 | -13.58515 | -72.36673 | 27728 ft | 471 kts | 105° |
| 2026-05-07 14:51 | -13.59364 | -72.33440 | 27088 ft | 465 kts | 105° |
| 2026-05-07 14:51 | -13.60202 | -72.30246 | 26462 ft | 460 kts | 105° |
| 2026-05-07 14:51 | -13.61024 | -72.27118 | 25846 ft | 456 kts | 105° |
| 2026-05-07 14:51 | -13.61840 | -72.23998 | 25229 ft | 451 kts | 105° |
| 2026-05-07 14:52 | -13.62651 | -72.20900 | 24642 ft | 446 kts | 105° |
| 2026-05-07 14:52 | -13.63452 | -72.17845 | 24033 ft | 434 kts | 105° |
| 2026-05-07 14:52 | -13.64225 | -72.14894 | 23376 ft | 420 kts | 105° |
| 2026-05-07 14:52 | -13.64972 | -72.12051 | 22867 ft | 404 kts | 105° |
| 2026-05-07 14:53 | -13.65692 | -72.09305 | 22322 ft | 395 kts | 105° |
| 2026-05-07 14:53 | -13.66401 | -72.06593 | 21787 ft | 391 kts | 105° |
| 2026-05-07 14:53 | -13.67112 | -72.03876 | 21197 ft | 392 kts | 105° |
| 2026-05-07 14:53 | -13.67822 | -72.01178 | 20614 ft | 391 kts | 106° |
| 2026-05-07 14:54 | -13.68713 | -71.98551 | 20026 ft | 388 kts | 113° |
| 2026-05-07 14:54 | -13.69879 | -71.96128 | 19788 ft | 375 kts | 120° |
| 2026-05-07 14:54 | -13.71183 | -71.93866 | 19644 ft | 360 kts | 121° |
| 2026-05-07 14:54 | -13.72442 | -71.91692 | 19506 ft | 346 kts | 121° |
| 2026-05-07 14:55 | -13.73646 | -71.89605 | 19382 ft | 333 kts | 121° |
| 2026-05-07 14:55 | -13.73795 | -71.89347 | 19364 ft | 331 kts | 121° |
| 2026-05-07 14:55 | -13.74541 | -71.88051 | 19291 ft | 323 kts | 120° |
| 2026-05-07 14:55 | -13.75666 | -71.86090 | 19091 ft | 314 kts | 120° |
| 2026-05-07 14:56 | -13.76732 | -71.84166 | 18874 ft | 306 kts | 115° |
| 2026-05-07 14:56 | -13.77430 | -71.82098 | 18418 ft | 306 kts | 101° |
| 2026-05-07 14:56 | -13.77648 | -71.79926 | 17981 ft | 306 kts | 89° |
| 2026-05-07 14:56 | -13.77393 | -71.77745 | 17452 ft | 309 kts | 76° |
| 2026-05-07 14:57 | -13.76666 | -71.75674 | 17042 ft | 308 kts | 64° |
| 2026-05-07 14:57 | -13.75525 | -71.73821 | 16639 ft | 307 kts | 51° |
| 2026-05-07 14:57 | -13.74036 | -71.72295 | 16421 ft | 300 kts | 39° |
| 2026-05-07 14:57 | -13.72312 | -71.71155 | 16307 ft | 289 kts | 26° |
| 2026-05-07 14:58 | -13.70476 | -71.70439 | 16227 ft | 277 kts | 14° |
| 2026-05-07 14:58 | -13.68619 | -71.70137 | 16144 ft | 264 kts | 3° |
| 2026-05-07 14:58 | -13.66826 | -71.70202 | 16057 ft | 251 kts | 352° |
| 2026-05-07 14:58 | -13.65162 | -71.70576 | 15924 ft | 240 kts | 342° |
| 2026-05-07 14:59 | -13.63633 | -71.71216 | 15646 ft | 237 kts | 332° |
| 2026-05-07 14:59 | -13.62791 | -71.71717 | 15456 ft | 236 kts | 326° |
| 2026-05-07 14:59 | -13.61520 | -71.72734 | 15152 ft | 235 kts | 316° |
| 2026-05-07 14:59 | -13.60472 | -71.73918 | 15086 ft | 211 kts | 307° |
| 2026-05-07 15:00 | -13.59708 | -71.75092 | 14958 ft | 190 kts | 299° |
| 2026-05-07 15:00 | -13.59152 | -71.76263 | 14751 ft | 178 kts | 291° |
| 2026-05-07 15:00 | -13.58696 | -71.77434 | 14424 ft | 176 kts | 292° |
| 2026-05-07 15:00 | -13.58220 | -71.78594 | 14027 ft | 176 kts | 292° |
| 2026-05-07 15:01 | -13.57746 | -71.79745 | 13639 ft | 175 kts | 292° |
| 2026-05-07 15:01 | -13.57281 | -71.80891 | 13285 ft | 171 kts | 292° |
| 2026-05-07 15:01 | -13.56850 | -71.81986 | 13037 ft | 163 kts | 289° |
| 2026-05-07 15:01 | -13.56482 | -71.83095 | 12728 ft | 165 kts | 288° |
| 2026-05-07 15:02 | -13.56111 | -71.84215 | 12364 ft | 163 kts | 289° |
| 2026-05-07 15:02 | -13.55731 | -71.85302 | 12188 ft | 165 kts | 292° |
| 2026-05-07 15:02 | -13.55219 | -71.86365 | 11964 ft | 165 kts | 300° |
| 2026-05-07 15:02 | -13.54615 | -71.87354 | 11899 ft | 163 kts | 301° |
| 2026-05-07 15:03 | -13.54164 | -71.88428 | 11784 ft | 165 kts | 283° |
| 2026-05-07 15:03 | -13.54045 | -71.89599 | 11454 ft | 163 kts | 274° |
| 2026-05-07 15:03 | -13.53911 | -71.90747 | 11103 ft | 160 kts | 276° |
| 2026-05-07 15:03 | -13.53781 | -71.91878 | 10835 ft | 159 kts | 275° |
| 2026-05-07 15:04 | -13.53670 | -71.92968 | 10753 ft | 144 kts | 274° |
| 2026-05-07 15:04 | -13.53588 | -71.93840 | 10801 ft | 93 kts | 276° |
| 2026-05-07 15:04 | -13.53539 | -71.94253 | 10815 ft | 29 kts | 276° |
| 2026-05-07 15:04 | -13.53539 | -71.94314 | 10815 ft | 3 kts | 256° |
| 2026-05-07 15:05 | -13.53561 | -71.94336 | 10814 ft | 6 kts | 198° |
| 2026-05-07 15:05 | -13.53619 | -71.94348 | 10815 ft | 10 kts | 184° |
| 2026-05-07 15:05 | -13.53652 | -71.94327 | 10816 ft | 5 kts | 110° |
| 2026-05-07 15:05 | -13.53669 | -71.94285 | 10816 ft | 7 kts | 117° |
| 2026-05-07 15:06 | -13.53709 | -71.94271 | 10816 ft | 3 kts | 212° |
| 2026-05-07 15:06 | -13.53715 | -71.94291 | 10816 ft | 4 kts | 249° |
| 2026-05-07 15:06 | -13.53724 | -71.94321 | 10816 ft | 0 kts | 257° |